createdAt,value
2023-04-26T00:02:25.138Z,3.09
2023-04-26T00:04:56.260Z,3.18
2023-04-26T00:07:24.847Z,3.14
2023-04-26T00:09:53.244Z,3.12
2023-04-26T00:12:22.050Z,3.05
2023-04-26T00:14:49.976Z,3.09
2023-04-26T00:17:19.248Z,3.07
2023-04-26T00:19:47.127Z,3.01
2023-04-26T00:22:15.337Z,2.98
2023-04-26T00:24:43.456Z,2.90
2023-04-26T00:27:11.292Z,2.92
2023-04-26T00:29:39.297Z,2.88
2023-04-26T00:32:07.447Z,2.87
2023-04-26T00:34:37.081Z,2.81
2023-04-26T00:37:05.941Z,2.76
2023-04-26T00:39:33.728Z,2.71
2023-04-26T00:42:01.806Z,2.65
2023-04-26T00:44:29.595Z,2.61
2023-04-26T00:46:57.375Z,2.57
2023-04-26T00:49:25.956Z,2.54
2023-04-26T00:51:55.495Z,2.50
2023-04-26T00:54:23.439Z,2.45
2023-04-26T00:56:53.277Z,2.38
2023-04-26T00:59:21.522Z,2.36
2023-04-26T01:01:49.522Z,2.30
2023-04-26T01:04:17.896Z,2.27
2023-04-26T01:06:46.608Z,2.22
2023-04-26T01:09:16.497Z,2.17
2023-04-26T01:11:44.847Z,2.12
2023-04-26T01:14:12.655Z,2.06
2023-04-26T01:16:40.866Z,2.02
2023-04-26T01:19:10.994Z,1.97
2023-04-26T01:21:38.798Z,1.93
2023-04-26T01:24:08.682Z,1.91
2023-04-26T01:26:37.344Z,1.87
2023-04-26T01:29:14.733Z,1.85
2023-04-26T01:31:42.475Z,1.82
2023-04-26T01:34:10.408Z,1.80
2023-04-26T01:36:38.157Z,1.77
2023-04-26T01:39:08.235Z,1.69
2023-04-26T01:41:36.083Z,1.72
2023-04-26T01:44:03.957Z,1.69
2023-04-26T01:46:31.732Z,1.72
2023-04-26T01:48:59.503Z,1.73
2023-04-26T01:51:27.402Z,1.76
2023-04-26T01:53:55.154Z,1.75
2023-04-26T01:56:25.398Z,1.70
2023-04-26T01:58:53.416Z,1.72
2023-04-26T02:01:21.591Z,1.67
2023-04-26T02:03:49.762Z,1.60
2023-04-26T02:06:17.802Z,1.55
2023-04-26T02:08:46.477Z,1.49
2023-04-26T02:11:14.362Z,1.48
2023-04-26T02:13:43.453Z,1.48
2023-04-26T02:16:11.293Z,1.47
2023-04-26T02:18:39.047Z,1.50
2023-04-26T02:21:09.548Z,1.50
2023-04-26T02:23:37.311Z,1.50
2023-04-26T02:26:05.181Z,1.31
2023-04-26T02:28:33.153Z,1.59
2023-04-26T02:31:03.554Z,1.61
2023-04-26T02:33:31.400Z,1.59
2023-04-26T02:35:59.257Z,1.62
2023-04-26T02:38:27.386Z,1.64
2023-04-26T02:40:59.766Z,1.67
2023-04-26T02:43:27.812Z,1.69
2023-04-26T02:45:55.757Z,1.72
2023-04-26T02:48:25.024Z,1.73
2023-04-26T02:50:53.399Z,1.73
2023-04-26T02:53:21.628Z,1.74
2023-04-26T02:55:49.512Z,1.73
2023-04-26T02:58:17.467Z,1.75
2023-04-26T03:00:48.430Z,1.61
2023-04-26T03:03:16.773Z,1.79
2023-04-26T03:05:46.353Z,1.80
2023-04-26T03:08:14.143Z,1.82
2023-04-26T03:10:41.944Z,1.81
2023-04-26T03:13:09.772Z,1.82
2023-04-26T03:15:37.581Z,1.90
2023-04-26T03:18:05.725Z,1.89
2023-04-26T03:20:33.860Z,1.86
2023-04-26T03:23:02.986Z,1.88
2023-04-26T03:25:31.012Z,1.88
2023-04-26T03:27:58.809Z,1.88
2023-04-26T03:30:26.857Z,1.87
2023-04-26T03:32:54.895Z,1.85
2023-04-26T03:35:22.783Z,1.81
2023-04-26T03:37:52.502Z,1.85
2023-04-26T03:40:22.593Z,1.84
2023-04-26T03:42:50.474Z,1.83
2023-04-26T03:45:18.488Z,1.83
2023-04-26T03:47:46.608Z,1.81
2023-04-26T03:50:14.555Z,1.79
2023-04-26T03:52:42.415Z,1.77
2023-04-26T03:55:11.983Z,1.77
2023-04-26T03:57:41.295Z,1.74
2023-04-26T04:00:12.194Z,1.71
2023-04-26T04:02:40.196Z,1.76
2023-04-26T04:05:09.298Z,1.75
2023-04-26T04:07:37.225Z,1.78
2023-04-26T04:10:05.382Z,1.78
2023-04-26T04:12:33.132Z,1.76
2023-04-26T04:15:02.889Z,1.76
2023-04-26T04:17:30.885Z,1.74
2023-04-26T04:19:58.783Z,1.73
2023-04-26T04:22:26.603Z,1.74
2023-04-26T04:24:54.698Z,1.72
2023-04-26T04:27:22.827Z,1.73
2023-04-26T04:29:50.657Z,1.73
2023-04-26T04:32:19.865Z,1.75
2023-04-26T04:34:49.403Z,1.77
2023-04-26T04:37:18.243Z,1.77
2023-04-26T04:39:46.522Z,1.79
2023-04-26T04:42:14.423Z,1.81
2023-04-26T04:44:43.102Z,1.82
2023-04-26T04:47:10.891Z,1.84
2023-04-26T04:49:40.258Z,1.85
2023-04-26T04:52:08.132Z,1.90
2023-04-26T04:54:36.154Z,1.92
2023-04-26T04:57:04.305Z,1.96
2023-04-26T05:02:01.642Z,2.07
2023-04-26T05:04:29.736Z,2.09
2023-04-26T05:06:59.028Z,2.16
2023-04-26T05:09:26.902Z,2.20
2023-04-26T05:11:54.727Z,2.23
2023-04-26T05:14:22.491Z,2.29
2023-04-26T05:16:50.369Z,2.34
2023-04-26T05:19:18.153Z,2.38
2023-04-26T05:21:45.964Z,2.48
2023-04-26T05:24:15.128Z,2.57
2023-04-26T05:26:42.968Z,2.67
2023-04-26T05:29:10.740Z,2.76
2023-04-26T05:31:38.661Z,2.88
2023-04-26T05:34:06.447Z,2.96
2023-04-26T05:36:34.296Z,3.01
2023-04-26T05:39:02.082Z,3.13
2023-04-26T05:41:31.273Z,3.25
2023-04-26T05:43:59.063Z,3.37
2023-04-26T05:46:27.056Z,3.46
2023-04-26T05:48:54.879Z,3.58
2023-04-26T05:51:23.109Z,3.65
2023-04-26T05:53:51.157Z,3.73
2023-04-26T05:56:19.124Z,3.72
2023-04-26T05:58:48.585Z,3.79
2023-04-26T06:01:16.434Z,3.90
2023-04-26T06:03:46.032Z,4.03
2023-04-26T06:06:15.429Z,4.07
2023-04-26T06:08:44.186Z,4.27
2023-04-26T06:11:12.008Z,4.43
2023-04-26T06:13:39.790Z,4.52
2023-04-26T06:16:09.230Z,4.49
2023-04-26T06:18:37.053Z,4.48
2023-04-26T06:21:05.157Z,4.52
2023-04-26T06:23:32.913Z,4.61
2023-04-26T06:26:00.918Z,4.56
2023-04-26T06:28:29.184Z,4.54
2023-04-26T06:30:57.221Z,4.50
2023-04-26T06:33:26.389Z,4.41
2023-04-26T06:35:54.163Z,4.42
2023-04-26T06:38:21.984Z,4.52
2023-04-26T06:40:49.783Z,4.71
2023-04-26T06:43:18.073Z,4.88
2023-04-26T06:45:45.912Z,5.06
2023-04-26T06:48:14.041Z,5.35
2023-04-26T06:50:43.223Z,5.34
2023-04-26T06:53:11.114Z,5.53
2023-04-26T06:55:39.046Z,5.85
2023-04-26T06:58:06.853Z,6.10
2023-04-26T07:00:34.777Z,6.26
2023-04-26T07:05:30.447Z,6.41
2023-04-26T07:07:59.588Z,6.56
2023-04-26T07:10:27.875Z,6.76
2023-04-26T07:12:55.916Z,6.75
2023-04-26T07:15:23.920Z,6.89
2023-04-26T07:17:51.851Z,6.99
2023-04-26T07:20:22.777Z,7.08
2023-04-26T07:22:50.785Z,6.82
2023-04-26T07:25:20.293Z,6.71
2023-04-26T07:27:48.093Z,6.69
2023-04-26T07:30:16.308Z,6.73
2023-04-26T07:32:44.253Z,6.81
2023-04-26T07:35:16.122Z,6.83
2023-04-26T07:37:44.944Z,6.91
2023-04-26T07:40:14.980Z,7.16
2023-04-26T07:42:44.189Z,7.41
2023-04-26T07:45:13.120Z,7.60
2023-04-26T07:47:41.047Z,7.77
2023-04-26T07:50:10.651Z,7.89
2023-04-26T07:52:38.581Z,8.04
2023-04-26T07:55:07.359Z,8.12
2023-04-26T07:57:35.210Z,8.20
2023-04-26T08:00:07.882Z,8.57
2023-04-26T08:02:44.557Z,8.77
2023-04-26T08:05:13.688Z,9.09
2023-04-26T08:07:41.954Z,9.05
2023-04-26T08:10:11.096Z,9.02
2023-04-26T08:12:39.690Z,9.03
2023-04-26T08:15:10.121Z,8.60
2023-04-26T08:17:38.009Z,8.57
2023-04-26T08:20:07.247Z,8.56
2023-04-26T08:22:35.084Z,8.60
2023-04-26T08:25:04.648Z,8.81
2023-04-26T08:27:34.490Z,9.03
2023-04-26T08:30:02.430Z,8.97
2023-04-26T08:32:31.688Z,8.71
2023-04-26T08:34:59.657Z,8.61
2023-04-26T08:37:29.331Z,8.63
2023-04-26T08:39:57.437Z,8.57
2023-04-26T08:42:28.505Z,8.78
2023-04-26T08:44:56.676Z,8.83
2023-04-26T08:47:29.413Z,8.78
2023-04-26T08:50:02.709Z,8.51
2023-04-26T08:52:32.027Z,8.37
2023-04-26T08:55:00.695Z,8.11
2023-04-26T08:57:28.735Z,7.85
2023-04-26T08:59:58.380Z,8.12
2023-04-26T09:02:26.464Z,8.32
2023-04-26T09:04:54.547Z,8.42
2023-04-26T09:07:30.390Z,8.38
2023-04-26T09:10:00.216Z,8.38
2023-04-26T09:12:28.338Z,8.53
2023-04-26T09:14:56.447Z,8.58
2023-04-26T09:17:28.539Z,8.64
2023-04-26T09:19:56.767Z,8.64
2023-04-26T09:22:36.153Z,8.81
2023-04-26T09:25:05.493Z,8.85
2023-04-26T09:27:35.061Z,9.01
2023-04-26T09:30:10.664Z,9.14
2023-04-26T09:32:47.164Z,9.29
2023-04-26T09:35:29.874Z,9.41
2023-04-26T09:38:04.785Z,9.44
2023-04-26T09:40:38.260Z,9.47
2023-04-26T09:43:07.296Z,9.50
2023-04-26T09:45:45.002Z,9.49
2023-04-26T09:48:17.691Z,9.62
2023-04-26T09:50:46.661Z,9.69
2023-04-26T09:53:28.547Z,9.59
2023-04-26T09:55:57.337Z,9.29
2023-04-26T09:58:25.390Z,9.39
2023-04-26T10:00:54.615Z,9.32
2023-04-26T10:03:24.481Z,9.38
2023-04-26T10:05:52.601Z,9.41
2023-04-26T10:08:20.703Z,9.44
2023-04-26T10:10:50.442Z,9.29
2023-04-26T10:13:19.916Z,9.35
2023-04-26T10:15:48.935Z,9.36
2023-04-26T10:18:17.317Z,9.76
2023-04-26T10:20:48.792Z,9.70
2023-04-26T10:23:21.318Z,9.78
2023-04-26T10:25:50.759Z,9.78
2023-04-26T10:28:18.933Z,10.14
2023-04-26T10:30:56.438Z,10.57
2023-04-26T10:33:24.651Z,10.46
2023-04-26T10:36:07.090Z,10.52
2023-04-26T10:38:35.445Z,10.79
2023-04-26T10:41:35.224Z,10.93
2023-04-26T10:44:36.843Z,10.65
2023-04-26T10:47:06.678Z,10.81
2023-04-26T10:49:46.729Z,11.02
2023-04-26T10:52:16.321Z,10.67
2023-04-26T10:54:52.249Z,10.59
2023-04-26T10:57:22.559Z,10.44
2023-04-26T11:00:20.954Z,10.44
2023-04-26T11:02:55.896Z,10.74
2023-04-26T11:05:37.932Z,10.67
2023-04-26T11:08:11.282Z,11.15
2023-04-26T11:10:39.901Z,11.25
2023-04-26T11:13:09.179Z,11.12
2023-04-26T11:15:37.209Z,10.83
2023-04-26T11:18:05.985Z,11.04
2023-04-26T11:20:34.122Z,11.20
2023-04-26T11:23:02.748Z,10.80
2023-04-26T11:25:31.406Z,11.04
2023-04-26T11:28:01.123Z,11.31
2023-04-26T11:30:31.728Z,11.07
2023-04-26T11:33:00.261Z,11.20
2023-04-26T11:35:29.858Z,11.53
2023-04-26T11:37:59.986Z,11.67
2023-04-26T11:40:31.951Z,11.52
2023-04-26T11:43:03.572Z,11.48
2023-04-26T11:45:35.929Z,11.43
2023-04-26T11:48:05.214Z,11.52
2023-04-26T11:50:33.641Z,11.36
2023-04-26T11:53:03.359Z,11.21
2023-04-26T11:55:33.109Z,10.93
2023-04-26T11:58:01.396Z,10.87
2023-04-26T12:00:29.460Z,11.00
2023-04-26T12:02:59.957Z,11.41
2023-04-26T12:05:30.654Z,11.67
2023-04-26T12:07:59.429Z,11.88
2023-04-26T12:10:28.877Z,11.68
2023-04-26T12:12:58.061Z,11.27
2023-04-26T12:15:27.285Z,11.10
2023-04-26T12:18:01.568Z,10.73
2023-04-26T12:20:34.911Z,10.57
2023-04-26T12:23:06.324Z,10.99
2023-04-26T12:25:35.015Z,11.29
2023-04-26T12:28:04.089Z,11.53
2023-04-26T12:30:32.071Z,11.27
2023-04-26T12:33:13.052Z,10.99
2023-04-26T12:35:44.971Z,11.40
2023-04-26T12:38:13.680Z,11.64
2023-04-26T12:40:41.789Z,12.10
2023-04-26T12:43:09.719Z,12.26
2023-04-26T12:45:37.701Z,12.34
2023-04-26T12:48:07.456Z,12.71
2023-04-26T12:50:35.315Z,12.33
2023-04-26T12:53:03.151Z,12.28
2023-04-26T12:55:32.551Z,12.20
2023-04-26T12:58:01.232Z,12.39
2023-04-26T13:00:29.257Z,12.54
2023-04-26T13:02:57.233Z,12.49
2023-04-26T13:05:26.499Z,12.46
2023-04-26T13:07:54.326Z,12.54
2023-04-26T13:10:22.180Z,12.48
2023-04-26T13:12:50.015Z,12.56
2023-04-26T13:15:18.077Z,12.62
2023-04-26T13:17:46.187Z,12.79
2023-04-26T13:20:14.625Z,12.36
2023-04-26T13:22:43.784Z,12.42
2023-04-26T13:25:13.252Z,12.28
2023-04-26T13:27:41.141Z,12.35
2023-04-26T13:30:10.347Z,12.54
2023-04-26T13:32:38.163Z,12.84
2023-04-26T13:35:07.471Z,13.00
2023-04-26T13:37:35.555Z,12.46
2023-04-26T13:40:05.682Z,12.60
2023-04-26T13:42:33.597Z,12.49
2023-04-26T13:45:06.205Z,12.78
2023-04-26T13:47:34.044Z,12.98
2023-04-26T13:50:02.139Z,13.35
2023-04-26T13:52:29.951Z,13.69
2023-04-26T13:54:57.858Z,13.96
2023-04-26T13:57:27.007Z,14.00
2023-04-26T13:59:54.889Z,14.05
2023-04-26T14:02:23.123Z,14.09
2023-04-26T14:04:51.285Z,14.30
2023-04-26T14:07:19.382Z,13.69
2023-04-26T14:09:47.228Z,12.97
2023-04-26T14:12:15.001Z,12.65
2023-04-26T14:14:46.370Z,12.76
2023-04-26T14:17:14.149Z,13.20
2023-04-26T14:19:42.293Z,13.67
2023-04-26T14:22:12.880Z,14.16
2023-04-26T14:24:40.814Z,14.39
2023-04-26T14:27:08.605Z,13.75
2023-04-26T14:29:36.416Z,13.48
2023-04-26T14:32:05.940Z,12.87
2023-04-26T14:34:36.073Z,12.84
2023-04-26T14:37:04.883Z,12.83
2023-04-26T14:39:32.736Z,12.63
2023-04-26T14:42:00.657Z,12.86
2023-04-26T14:44:29.382Z,13.27
2023-04-26T14:46:57.179Z,13.06
2023-04-26T14:49:26.389Z,12.13
2023-04-26T14:51:54.199Z,11.53
2023-04-26T14:54:22.615Z,11.22
2023-04-26T14:56:51.383Z,11.16
2023-04-26T14:59:19.266Z,11.51
2023-04-26T15:01:47.205Z,11.28
2023-04-26T15:04:15.329Z,11.34
2023-04-26T15:06:44.723Z,11.43
2023-04-26T15:09:13.217Z,11.74
2023-04-26T15:11:40.961Z,12.16
2023-04-26T15:14:08.804Z,12.49
2023-04-26T15:16:36.743Z,12.77
2023-04-26T15:19:04.597Z,12.65
2023-04-26T15:21:34.344Z,12.61
2023-04-26T15:24:03.539Z,12.50
2023-04-26T15:26:31.356Z,12.85
2023-04-26T15:28:59.136Z,13.30
2023-04-26T15:31:27.011Z,12.84
2023-04-26T15:33:56.423Z,12.17
2023-04-26T15:36:24.210Z,11.79
2023-04-26T15:38:52.022Z,11.96
2023-04-26T15:41:21.209Z,11.85
2023-04-26T15:43:49.022Z,11.71
2023-04-26T15:46:17.228Z,11.92
2023-04-26T15:48:45.131Z,12.10
2023-04-26T15:51:12.898Z,12.10
2023-04-26T15:53:43.864Z,12.19
2023-04-26T15:56:15.525Z,12.21
2023-04-26T15:58:45.681Z,12.26
2023-04-26T16:01:13.727Z,11.76
2023-04-26T16:03:43.509Z,11.85
2023-04-26T16:06:14.510Z,11.75
2023-04-26T16:08:42.310Z,11.63
2023-04-26T16:11:10.213Z,11.50
2023-04-26T16:13:37.998Z,11.44
2023-04-26T16:16:10.672Z,11.51
2023-04-26T16:18:39.658Z,11.57
2023-04-26T16:21:09.608Z,11.71
2023-04-26T16:23:38.041Z,11.83
2023-04-26T16:26:06.241Z,11.70
2023-04-26T16:28:34.231Z,11.53
2023-04-26T16:31:02.336Z,11.59
2023-04-26T16:33:31.718Z,11.68
2023-04-26T16:35:59.550Z,11.69
2023-04-26T16:38:27.343Z,11.63
2023-04-26T16:40:58.143Z,11.58
2023-04-26T16:43:26.977Z,11.57
2023-04-26T16:45:59.245Z,11.75
2023-04-26T16:48:27.228Z,11.90
2023-04-26T16:50:56.549Z,12.07
2023-04-26T16:53:24.328Z,12.06
2023-04-26T16:55:52.300Z,12.05
2023-04-26T16:58:20.584Z,12.08
2023-04-26T17:00:48.538Z,11.87
2023-04-26T17:03:16.574Z,11.60
2023-04-26T17:05:46.946Z,11.37
2023-04-26T17:08:16.611Z,11.32
2023-04-26T17:10:44.959Z,11.33
2023-04-26T17:13:13.760Z,11.20
2023-04-26T17:15:42.070Z,11.30
2023-04-26T17:18:10.905Z,11.27
2023-04-26T17:20:38.891Z,11.39
2023-04-26T17:23:08.539Z,11.49
2023-04-26T17:25:37.745Z,11.67
2023-04-26T17:28:05.726Z,11.76
2023-04-26T17:30:33.503Z,11.82
2023-04-26T17:33:01.355Z,11.87
2023-04-26T17:35:29.571Z,11.93
2023-04-26T17:37:57.343Z,11.87
2023-04-26T17:40:25.171Z,11.77
2023-04-26T17:42:54.370Z,11.74
2023-04-26T17:45:22.618Z,11.72
2023-04-26T17:47:50.531Z,11.75
2023-04-26T17:50:21.078Z,11.77
2023-04-26T17:52:49.096Z,11.79
2023-04-26T17:55:17.108Z,11.76
2023-04-26T17:57:44.988Z,11.67
2023-04-26T18:00:15.714Z,11.56
2023-04-26T18:02:44.016Z,11.41
2023-04-26T18:05:12.137Z,11.30
2023-04-26T18:07:40.001Z,11.27
2023-04-26T18:10:08.806Z,11.11
2023-04-26T18:12:36.762Z,10.93
2023-04-26T18:15:05.676Z,10.69
2023-04-26T18:17:34.843Z,10.56
2023-04-26T18:20:02.710Z,10.51
2023-04-26T18:22:30.643Z,10.42
2023-04-26T18:24:58.779Z,10.35
2023-04-26T18:27:26.644Z,10.27
2023-04-26T18:29:54.448Z,10.19
2023-04-26T18:32:22.198Z,10.08
2023-04-26T18:34:51.447Z,10.00
2023-04-26T18:37:20.150Z,9.89
2023-04-26T18:39:48.733Z,9.84
2023-04-26T18:42:16.596Z,9.76
2023-04-26T18:44:44.438Z,9.65
2023-04-26T18:47:12.251Z,9.57
2023-04-26T18:49:40.063Z,9.50
2023-04-26T18:52:09.974Z,9.41
2023-04-26T18:54:39.021Z,9.32
2023-04-26T18:57:06.816Z,9.23
2023-04-26T18:59:34.645Z,9.15
2023-04-26T19:02:04.386Z,9.07
2023-04-26T19:04:32.554Z,8.98
2023-04-26T19:07:01.218Z,8.87
2023-04-26T19:09:35.088Z,8.85
2023-04-26T19:12:08.273Z,8.78
2023-04-26T19:14:36.108Z,8.72
2023-04-26T19:17:04.145Z,8.70
2023-04-26T19:19:31.961Z,8.67
2023-04-26T19:21:59.776Z,8.62
2023-04-26T19:24:27.533Z,8.58
2023-04-26T19:26:56.764Z,8.56
2023-04-26T19:29:24.604Z,8.50
2023-04-26T19:31:52.421Z,8.46
2023-04-26T19:34:20.249Z,8.39
2023-04-26T19:36:48.168Z,8.36
2023-04-26T19:39:16.893Z,8.28
2023-04-26T19:41:44.791Z,8.08
2023-04-26T19:44:13.947Z,8.15
2023-04-26T19:46:42.631Z,8.10
2023-04-26T19:49:10.434Z,8.01
2023-04-26T19:51:38.215Z,7.96
2023-04-26T19:54:06.216Z,7.91
2023-04-26T19:56:34.032Z,7.86
2023-04-26T19:59:01.801Z,7.87
2023-04-26T20:01:31.169Z,7.81
2023-04-26T20:03:59.187Z,7.81
2023-04-26T20:06:27.588Z,7.70
2023-04-26T20:08:55.432Z,7.60
2023-04-26T20:11:23.863Z,7.49
2023-04-26T20:13:51.799Z,7.43
2023-04-26T20:16:20.047Z,7.37
2023-04-26T20:18:49.243Z,7.31
2023-04-26T20:21:17.083Z,7.29
2023-04-26T20:23:45.334Z,7.25
2023-04-26T20:26:13.233Z,7.24
2023-04-26T20:28:41.071Z,7.20
2023-04-26T20:31:09.461Z,7.17
2023-04-26T20:33:39.185Z,7.12
2023-04-26T20:36:09.105Z,7.06
2023-04-26T20:38:36.862Z,6.99
2023-04-26T20:41:04.675Z,6.92
2023-04-26T20:43:32.468Z,6.89
2023-04-26T20:46:00.284Z,6.82
2023-04-26T20:48:28.114Z,6.78
2023-04-26T20:50:57.096Z,6.65
2023-04-26T20:53:26.946Z,6.60
2023-04-26T20:55:54.935Z,6.50
2023-04-26T20:58:22.784Z,6.40
2023-04-26T21:00:51.457Z,6.35
2023-04-26T21:03:19.608Z,6.32
2023-04-26T21:05:47.503Z,6.26
2023-04-26T21:08:15.475Z,6.24
2023-04-26T21:10:45.893Z,6.31
2023-04-26T21:13:13.954Z,6.35
2023-04-26T21:15:41.825Z,6.31
2023-04-26T21:18:09.678Z,6.25
2023-04-26T21:20:37.457Z,6.23
2023-04-26T21:23:05.331Z,6.19
2023-04-26T21:25:33.502Z,6.15
2023-04-26T21:28:03.261Z,6.12
2023-04-26T21:30:31.166Z,6.10
2023-04-26T21:32:58.944Z,6.06
2023-04-26T21:35:26.875Z,6.01
2023-04-26T21:37:54.710Z,6.02
2023-04-26T21:40:22.528Z,5.98
2023-04-26T21:43:04.000Z,5.97
2023-04-26T21:45:33.930Z,5.83
2023-04-26T21:48:01.804Z,5.90
2023-04-26T21:50:29.629Z,5.85
2023-04-26T21:52:57.453Z,5.87
2023-04-26T21:55:25.293Z,5.85
2023-04-26T21:57:53.078Z,5.82
2023-04-26T22:00:21.191Z,5.81
2023-04-26T22:02:51.437Z,5.81
2023-04-26T22:05:19.390Z,5.81
2023-04-26T22:07:47.208Z,5.79
2023-04-26T22:10:16.450Z,5.76
2023-04-26T22:12:44.263Z,5.74
2023-04-26T22:15:12.478Z,5.72
2023-04-26T22:17:40.355Z,5.72
2023-04-26T22:20:10.987Z,5.76
2023-04-26T22:22:38.853Z,5.76
2023-04-26T22:25:07.610Z,5.76
2023-04-26T22:27:35.501Z,5.81
2023-04-26T22:30:16.126Z,5.83
2023-04-26T22:32:52.773Z,5.85
2023-04-26T22:35:22.572Z,5.88
2023-04-26T22:37:50.679Z,5.89
2023-04-26T22:40:18.721Z,5.90
2023-04-26T22:42:46.687Z,5.95
2023-04-26T22:45:14.962Z,5.96
2023-04-26T22:47:42.800Z,5.98
2023-04-26T22:50:11.678Z,5.97
2023-04-26T22:52:41.104Z,5.99
2023-04-26T22:55:10.019Z,5.97
2023-04-26T22:57:37.880Z,6.01
2023-04-26T23:00:09.559Z,6.02
2023-04-26T23:02:37.609Z,6.01
2023-04-26T23:05:09.578Z,6.01
2023-04-26T23:07:38.211Z,6.01
2023-04-26T23:10:08.732Z,6.02
2023-04-26T23:12:37.307Z,5.99
2023-04-26T23:15:06.360Z,5.99
2023-04-26T23:17:34.852Z,5.87
2023-04-26T23:20:11.622Z,5.97
2023-04-26T23:22:39.876Z,5.96
2023-04-26T23:25:10.180Z,5.92
2023-04-26T23:27:38.759Z,5.91
2023-04-26T23:30:08.103Z,5.89
2023-04-26T23:32:36.175Z,5.83
2023-04-26T23:35:04.143Z,5.85
2023-04-26T23:37:32.300Z,5.82
2023-04-26T23:40:00.252Z,5.78
2023-04-26T23:42:29.548Z,5.73
2023-04-26T23:44:57.646Z,5.73
2023-04-26T23:47:25.712Z,5.70
2023-04-26T23:49:53.587Z,5.67
2023-04-26T23:52:21.748Z,5.63
2023-04-26T23:54:49.540Z,5.58
2023-04-26T23:57:17.633Z,5.55
2023-04-26T23:59:47.247Z,5.46
